createdAt,value
2019-03-03T00:01:10.018Z,49.03
2019-03-03T00:03:39.273Z,44.97
2019-03-03T00:06:08.500Z,45.33
2019-03-03T00:08:38.020Z,41.60
2019-03-03T00:11:07.283Z,41.50
2019-03-03T00:13:36.556Z,41.63
2019-03-03T00:16:06.053Z,41.33
2019-03-03T00:18:35.332Z,42.90
2019-03-03T00:21:04.566Z,40.97
2019-03-03T00:23:33.879Z,41.97
2019-03-03T00:26:03.593Z,43.20
2019-03-03T00:28:32.837Z,44.23
2019-03-03T00:31:02.090Z,44.00
2019-03-03T00:33:31.340Z,46.80
2019-03-03T00:36:00.560Z,46.60
2019-03-03T00:38:39.118Z,44.47
2019-03-03T00:41:22.856Z,49.40
2019-03-03T00:44:08.037Z,44.37
2019-03-03T00:46:52.481Z,48.63
2019-03-03T00:49:34.038Z,44.93
2019-03-03T00:52:30.840Z,51.07
2019-03-03T00:55:10.068Z,46.33
2019-03-03T00:58:02.457Z,54.93
2019-03-03T01:00:54.755Z,49.37
2019-03-03T01:03:48.924Z,48.30
2019-03-03T01:06:46.083Z,46.90
2019-03-03T01:09:51.570Z,49.30
2019-03-03T01:12:38.522Z,47.40
2019-03-03T01:15:16.221Z,45.87
2019-03-03T01:18:16.448Z,48.80
2019-03-03T01:21:10.574Z,46.47
2019-03-03T01:23:47.785Z,48.63
2019-03-03T01:26:17.034Z,45.93
2019-03-03T01:28:46.285Z,50.43
2019-03-03T01:31:15.538Z,46.50
2019-03-03T01:33:44.769Z,47.90
2019-03-03T01:36:14.156Z,47.10
2019-03-03T01:38:43.390Z,45.70
2019-03-03T01:41:12.650Z,45.43
2019-03-03T01:43:41.872Z,45.30
2019-03-03T01:46:11.158Z,49.57
2019-03-03T01:48:40.494Z,45.63
2019-03-03T01:51:09.805Z,48.47
2019-03-03T01:53:39.023Z,47.53
2019-03-03T01:56:08.282Z,44.60
2019-03-03T01:58:37.521Z,47.07
2019-03-03T02:01:06.818Z,43.33
2019-03-03T02:03:36.469Z,43.17
2019-03-03T02:06:06.914Z,47.20
2019-03-03T02:08:36.142Z,45.83
2019-03-03T02:11:05.625Z,49.80
2019-03-03T02:13:36.962Z,51.77
2019-03-03T02:16:09.573Z,48.23
2019-03-03T02:18:38.798Z,49.83
2019-03-03T02:21:08.101Z,53.80
2019-03-03T02:23:37.346Z,56.27
2019-03-03T02:26:06.585Z,52.60
2019-03-03T02:28:35.879Z,48.00
2019-03-03T02:31:05.174Z,52.67
2019-03-03T02:33:34.416Z,52.23
2019-03-03T02:36:03.654Z,53.83
2019-03-03T02:38:32.973Z,55.77
2019-03-03T02:41:02.235Z,51.50
2019-03-03T02:43:38.927Z,50.60
2019-03-03T02:46:08.158Z,52.87
2019-03-03T02:48:37.407Z,54.43
2019-03-03T02:51:06.694Z,55.63
2019-03-03T02:53:35.914Z,54.90
2019-03-03T02:56:05.177Z,50.57
2019-03-03T02:58:34.404Z,51.63
2019-03-03T03:01:21.241Z,52.30
2019-03-03T03:03:50.491Z,53.30
2019-03-03T03:06:27.627Z,51.43
2019-03-03T03:09:14.687Z,50.27
2019-03-03T03:12:11.934Z,52.17
2019-03-03T03:14:52.818Z,48.03
2019-03-03T03:17:43.942Z,46.90
2019-03-03T03:20:26.436Z,45.13
2019-03-03T03:23:04.418Z,47.90
2019-03-03T03:26:04.653Z,43.73
2019-03-03T03:28:41.692Z,44.70
2019-03-03T03:31:24.916Z,40.97
2019-03-03T03:34:25.321Z,40.73
2019-03-03T03:37:04.902Z,39.03
2019-03-03T03:39:40.189Z,32.77
2019-03-03T03:42:37.736Z,31.43
2019-03-03T03:45:21.786Z,34.90
2019-03-03T03:48:12.845Z,29.43
2019-03-03T03:51:08.912Z,27.10
2019-03-03T03:53:57.120Z,28.27
2019-03-03T03:56:51.654Z,25.03
2019-03-03T03:59:32.352Z,28.37
2019-03-03T04:02:19.945Z,30.03
2019-03-03T04:05:06.872Z,25.50
2019-03-03T04:07:42.568Z,26.80
2019-03-03T04:10:20.405Z,24.83
2019-03-03T04:13:17.213Z,27.50
2019-03-03T04:16:03.945Z,22.93
2019-03-03T04:18:52.168Z,22.60
2019-03-03T04:21:38.935Z,20.23
2019-03-03T04:24:42.399Z,19.43
2019-03-03T04:27:33.435Z,19.97
2019-03-03T04:30:30.498Z,21.47
2019-03-03T04:33:06.975Z,20.37
2019-03-03T04:35:55.328Z,19.30
2019-03-03T04:38:44.455Z,22.47
2019-03-03T04:41:24.824Z,21.87
2019-03-03T04:44:18.920Z,23.07
2019-03-03T04:47:16.133Z,23.97
2019-03-03T04:50:14.659Z,26.20
2019-03-03T04:52:55.949Z,23.70
2019-03-03T04:55:59.245Z,25.33
2019-03-03T04:58:46.020Z,27.20
2019-03-03T05:01:32.734Z,28.10
2019-03-03T05:04:11.508Z,30.30
2019-03-03T05:07:02.261Z,30.00
2019-03-03T05:09:49.226Z,25.53
2019-03-03T05:12:47.356Z,29.77
2019-03-03T05:15:51.795Z,25.47
2019-03-03T05:18:37.657Z,30.03
2019-03-03T05:21:06.884Z,25.17
2019-03-03T05:23:36.133Z,26.93
2019-03-03T05:26:07.365Z,23.67
2019-03-03T05:28:36.654Z,24.73
2019-03-03T05:31:05.903Z,27.03
2019-03-03T05:33:35.187Z,28.03
2019-03-03T05:36:04.446Z,24.70
2019-03-03T05:38:33.747Z,26.97
2019-03-03T05:41:03.019Z,25.27
2019-03-03T05:43:32.257Z,27.67
2019-03-03T05:46:01.504Z,24.93
2019-03-03T05:48:30.721Z,21.03
2019-03-03T05:51:00.097Z,23.03
2019-03-03T05:53:29.339Z,21.33
2019-03-03T05:55:58.631Z,22.00
2019-03-03T05:58:27.889Z,17.03
2019-03-03T06:00:57.142Z,17.97
2019-03-03T06:03:26.432Z,18.57
2019-03-03T06:05:56.246Z,19.47
2019-03-03T06:08:25.492Z,18.50
2019-03-03T06:10:54.785Z,18.23
2019-03-03T06:13:24.748Z,16.63
2019-03-03T06:15:53.992Z,17.70
2019-03-03T06:18:23.539Z,16.80
2019-03-03T06:20:52.791Z,15.63
2019-03-03T06:23:22.046Z,15.03
2019-03-03T06:25:51.398Z,14.17
2019-03-03T06:28:20.667Z,14.77
2019-03-03T06:30:50.061Z,11.23
2019-03-03T06:33:19.296Z,11.73
2019-03-03T06:35:48.539Z,10.33
2019-03-03T06:38:17.788Z,9.17
2019-03-03T06:40:47.053Z,9.17
2019-03-03T06:43:16.265Z,9.33
2019-03-03T06:45:45.596Z,9.10
2019-03-03T06:48:14.840Z,9.93
2019-03-03T06:50:44.087Z,11.77
2019-03-03T06:53:13.588Z,9.83
2019-03-03T06:55:42.858Z,8.90
2019-03-03T06:58:12.160Z,10.83
2019-03-03T07:00:41.623Z,11.00
2019-03-03T07:03:10.902Z,9.93
2019-03-03T07:05:40.144Z,10.17
2019-03-03T07:08:09.403Z,11.10
2019-03-03T07:10:38.703Z,9.63
2019-03-03T07:13:08.292Z,10.53
2019-03-03T07:15:37.536Z,9.57
2019-03-03T07:18:06.760Z,8.93
2019-03-03T07:20:36.042Z,8.37
2019-03-03T07:23:05.280Z,7.80
2019-03-03T07:25:34.546Z,11.27
2019-03-03T07:28:04.091Z,9.13
2019-03-03T07:30:33.363Z,12.63
2019-03-03T07:33:13.783Z,15.63
2019-03-03T07:35:43.220Z,14.47
2019-03-03T07:38:12.469Z,10.33
2019-03-03T07:40:42.145Z,10.10
2019-03-03T07:43:11.388Z,8.50
2019-03-03T07:45:40.623Z,9.37
2019-03-03T07:48:09.884Z,8.47
2019-03-03T07:50:39.111Z,8.87
2019-03-03T07:53:08.429Z,8.40
2019-03-03T07:55:37.660Z,9.63
2019-03-03T07:58:06.906Z,9.90
2019-03-03T08:00:36.896Z,8.13
2019-03-03T08:03:06.153Z,38.67
2019-03-03T08:05:35.401Z,146.53
2019-03-03T08:08:04.660Z,102.57
2019-03-03T08:10:33.940Z,38.87
2019-03-03T08:13:09.160Z,16.50
2019-03-03T08:15:36.450Z,8.50
2019-03-03T08:18:05.791Z,6.97
2019-03-03T08:20:35.051Z,10.20
2019-03-03T08:23:04.830Z,6.33
2019-03-03T08:25:34.077Z,6.87
2019-03-03T08:28:03.351Z,6.07
2019-03-03T08:30:32.586Z,4.33
2019-03-03T08:33:01.842Z,4.67
2019-03-03T08:35:31.087Z,6.00
2019-03-03T08:38:00.330Z,4.70
2019-03-03T08:40:29.559Z,5.90
2019-03-03T08:43:12.583Z,5.23
2019-03-03T08:45:51.270Z,5.07
2019-03-03T08:48:27.399Z,4.20
2019-03-03T08:51:21.491Z,5.27
2019-03-03T08:54:15.647Z,4.53
2019-03-03T08:57:03.870Z,4.03
2019-03-03T08:59:55.746Z,4.53
2019-03-03T09:02:42.787Z,5.07
2019-03-03T09:05:31.159Z,4.30
2019-03-03T09:08:18.083Z,4.10
2019-03-03T09:11:04.942Z,4.93
2019-03-03T09:13:49.391Z,5.87
2019-03-03T09:16:30.453Z,4.20
2019-03-03T09:19:24.573Z,5.07
2019-03-03T09:22:18.564Z,5.83
2019-03-03T09:25:07.691Z,4.70
2019-03-03T09:27:57.246Z,4.73
2019-03-03T09:30:51.324Z,2.97
2019-03-03T09:33:39.514Z,2.87
2019-03-03T09:36:26.273Z,2.80
2019-03-03T09:39:20.002Z,3.10
2019-03-03T09:41:59.167Z,3.97
2019-03-03T09:45:02.497Z,3.07
2019-03-03T09:47:53.270Z,3.15
2019-03-03T09:50:44.360Z,3.67
2019-03-03T09:53:25.071Z,3.27
2019-03-03T09:56:04.688Z,3.20
2019-03-03T09:59:04.999Z,2.77
2019-03-03T10:01:55.611Z,3.20
2019-03-03T10:04:36.104Z,3.10
2019-03-03T10:07:29.754Z,4.53
2019-03-03T10:10:30.032Z,2.30
2019-03-03T10:13:06.130Z,3.37
2019-03-03T10:15:46.077Z,4.27
2019-03-03T10:18:34.561Z,3.23
2019-03-03T10:21:18.473Z,4.37
2019-03-03T10:23:59.791Z,5.10
2019-03-03T10:27:00.047Z,3.83
2019-03-03T10:29:46.918Z,3.43
2019-03-03T10:32:31.530Z,3.20
2019-03-03T10:35:19.856Z,5.07
2019-03-03T10:38:16.968Z,3.30
2019-03-03T10:40:53.953Z,4.07
2019-03-03T10:43:32.911Z,5.23
2019-03-03T10:46:33.091Z,5.40
2019-03-03T10:49:27.507Z,2.80
2019-03-03T10:52:17.429Z,6.00
2019-03-03T10:54:54.529Z,3.47
2019-03-03T10:57:38.690Z,4.93
2019-03-03T11:00:44.108Z,5.20
2019-03-03T11:03:23.352Z,3.30
2019-03-03T11:06:20.612Z,2.90
2019-03-03T11:09:08.808Z,3.57
2019-03-03T11:11:59.740Z,4.63
2019-03-03T11:14:38.974Z,5.30
2019-03-03T11:17:25.656Z,4.13
2019-03-03T11:20:13.859Z,4.07
2019-03-03T11:23:02.229Z,5.40
2019-03-03T11:25:53.562Z,5.73
2019-03-03T11:28:40.463Z,4.87
2019-03-03T11:31:25.217Z,4.90
2019-03-03T11:34:16.427Z,3.87
2019-03-03T11:36:53.712Z,4.17
2019-03-03T11:39:40.590Z,3.70
2019-03-03T11:42:22.584Z,3.30
2019-03-03T11:45:26.333Z,4.00
2019-03-03T11:48:04.597Z,3.93
2019-03-03T11:50:46.229Z,3.47
2019-03-03T11:53:52.603Z,3.90
2019-03-03T11:56:29.269Z,4.70
2019-03-03T11:59:32.532Z,4.70
2019-03-03T12:02:20.739Z,4.03
2019-03-03T12:05:09.792Z,4.90
2019-03-03T12:08:05.490Z,4.93
2019-03-03T12:11:02.757Z,4.17
2019-03-03T12:13:41.133Z,6.10
2019-03-03T12:16:44.387Z,6.13
2019-03-03T12:19:44.399Z,4.40
2019-03-03T12:22:31.319Z,3.87
2019-03-03T12:25:15.192Z,4.23
2019-03-03T12:28:02.403Z,4.83
2019-03-03T12:30:48.752Z,5.20
2019-03-03T12:33:35.776Z,4.73
2019-03-03T12:36:19.879Z,5.23
2019-03-03T12:39:07.433Z,3.00
2019-03-03T12:42:03.643Z,4.63
2019-03-03T12:44:47.536Z,6.17
2019-03-03T12:47:41.840Z,5.83
2019-03-03T12:50:30.045Z,5.37
2019-03-03T12:53:18.232Z,3.57
2019-03-03T12:55:58.597Z,5.07
2019-03-03T12:58:46.793Z,3.60
2019-03-03T13:01:38.411Z,4.53
2019-03-03T13:04:44.668Z,5.40
2019-03-03T13:07:35.299Z,3.90
2019-03-03T13:10:17.137Z,4.60
2019-03-03T13:13:04.075Z,4.43
2019-03-03T13:16:04.566Z,7.23
2019-03-03T13:19:01.730Z,4.37
2019-03-03T13:21:51.536Z,7.70
2019-03-03T13:24:30.161Z,5.40
2019-03-03T13:27:24.161Z,6.97
2019-03-03T13:30:05.435Z,4.70
2019-03-03T13:33:09.311Z,5.10
2019-03-03T13:36:03.412Z,3.77
2019-03-03T13:38:51.645Z,4.93
2019-03-03T13:41:38.329Z,4.77
2019-03-03T13:44:07.605Z,4.60
2019-03-03T13:46:36.851Z,4.37
2019-03-03T13:49:06.135Z,4.07
2019-03-03T13:51:35.379Z,4.23
2019-03-03T13:54:06.480Z,3.13
2019-03-03T13:56:35.894Z,3.73
2019-03-03T13:59:05.470Z,2.90
2019-03-03T14:01:34.708Z,4.23
2019-03-03T14:04:03.997Z,4.73
2019-03-03T14:06:33.337Z,4.87
2019-03-03T14:09:02.634Z,4.77
2019-03-03T14:11:32.137Z,4.33
2019-03-03T14:14:01.658Z,5.10
2019-03-03T14:16:31.114Z,5.93
2019-03-03T14:19:00.393Z,3.70
2019-03-03T14:21:29.639Z,5.30
2019-03-03T14:23:58.918Z,4.73
2019-03-03T14:26:28.188Z,4.77
2019-03-03T14:28:57.446Z,2.77
2019-03-03T14:31:26.994Z,4.13
2019-03-03T14:33:56.264Z,2.53
2019-03-03T14:36:25.517Z,3.20
2019-03-03T14:38:54.929Z,3.33
2019-03-03T14:41:24.136Z,3.33
2019-03-03T14:43:53.368Z,3.23
2019-03-03T14:46:23.129Z,4.27
2019-03-03T14:48:52.439Z,3.20
2019-03-03T14:51:21.974Z,3.27
2019-03-03T14:53:51.241Z,5.10
2019-03-03T14:56:20.634Z,4.43
2019-03-03T14:58:49.961Z,3.40
2019-03-03T15:01:19.221Z,3.70
2019-03-03T15:03:48.455Z,4.83
2019-03-03T15:06:24.406Z,3.83
2019-03-03T15:08:48.700Z,4.23
2019-03-03T15:11:18.018Z,3.43
2019-03-03T15:13:47.262Z,3.30
2019-03-03T15:16:19.013Z,4.40
2019-03-03T15:18:49.120Z,4.00
2019-03-03T15:21:25.044Z,3.97
2019-03-03T15:23:49.411Z,4.37
2019-03-03T15:26:19.223Z,3.27
2019-03-03T15:28:48.482Z,2.63
2019-03-03T15:31:17.772Z,3.93
2019-03-03T15:33:47.014Z,2.90
2019-03-03T15:36:16.291Z,2.87
2019-03-03T15:38:45.574Z,3.90
2019-03-03T15:41:14.841Z,4.33
2019-03-03T15:43:44.111Z,3.03
2019-03-03T15:46:13.405Z,5.17
2019-03-03T15:48:42.641Z,4.40
2019-03-03T15:51:11.997Z,3.93
2019-03-03T15:53:41.225Z,5.43
2019-03-03T15:56:10.476Z,4.67
2019-03-03T15:58:39.705Z,4.03
2019-03-03T16:01:14.702Z,4.40
2019-03-03T16:03:43.956Z,5.40
2019-03-03T16:06:13.201Z,4.13
2019-03-03T16:08:42.428Z,5.93
2019-03-03T16:11:12.009Z,9.60
2019-03-03T16:13:41.246Z,5.30
2019-03-03T16:16:11.502Z,3.47
2019-03-03T16:18:40.748Z,2.77
2019-03-03T16:21:10.040Z,2.90
2019-03-03T16:23:39.256Z,3.90
2019-03-03T16:26:08.521Z,4.43
2019-03-03T16:28:37.796Z,3.10
2019-03-03T16:31:07.111Z,4.97
2019-03-03T16:33:36.390Z,4.90
2019-03-03T16:36:06.048Z,4.70
2019-03-03T16:38:35.302Z,5.53
2019-03-03T16:41:04.555Z,5.27
2019-03-03T16:43:33.789Z,3.70
2019-03-03T16:46:03.046Z,4.33
2019-03-03T16:48:32.311Z,3.47
2019-03-03T16:51:01.542Z,7.57
2019-03-03T16:53:30.964Z,4.60
2019-03-03T16:56:00.324Z,3.77
2019-03-03T16:58:29.960Z,3.50
2019-03-03T17:00:59.187Z,4.07
2019-03-03T17:03:28.633Z,3.77
2019-03-03T17:05:57.990Z,3.70
2019-03-03T17:08:27.518Z,5.07
2019-03-03T17:10:57.217Z,4.97
2019-03-03T17:13:26.824Z,4.03
2019-03-03T17:15:56.056Z,4.43
2019-03-03T17:18:25.301Z,3.50
2019-03-03T17:20:54.548Z,4.90
2019-03-03T17:23:23.881Z,5.83
2019-03-03T17:25:53.177Z,4.57
2019-03-03T17:28:22.501Z,8.83
2019-03-03T17:30:51.722Z,8.23
2019-03-03T17:33:21.679Z,7.97
2019-03-03T17:35:50.921Z,11.83
2019-03-03T17:38:20.192Z,8.67
2019-03-03T17:40:49.464Z,5.83
2019-03-03T17:43:18.713Z,4.47
2019-03-03T17:45:47.992Z,7.47
2019-03-03T17:48:17.324Z,9.67
2019-03-03T17:50:46.512Z,6.30
2019-03-03T17:53:15.755Z,7.33
2019-03-03T17:55:45.330Z,6.10
2019-03-03T17:58:14.684Z,6.63
2019-03-03T18:00:45.223Z,8.60
2019-03-03T18:03:14.453Z,6.50
2019-03-03T18:05:43.732Z,8.33
2019-03-03T18:08:12.961Z,8.00
2019-03-03T18:10:42.232Z,6.90
2019-03-03T18:13:11.454Z,7.83
2019-03-03T18:15:40.755Z,10.93
2019-03-03T18:18:09.980Z,12.47
2019-03-03T18:20:39.335Z,10.50
2019-03-03T18:23:08.601Z,13.33
2019-03-03T18:25:37.856Z,20.23
2019-03-03T18:28:07.089Z,18.77
2019-03-03T18:30:36.366Z,12.30
2019-03-03T18:33:05.597Z,9.47
2019-03-03T18:35:34.835Z,12.23
2019-03-03T18:38:04.348Z,10.80
2019-03-03T18:40:33.586Z,8.80
2019-03-03T18:43:03.020Z,8.43
2019-03-03T18:45:32.337Z,8.47
2019-03-03T18:48:01.556Z,8.83
2019-03-03T18:50:30.797Z,9.23
2019-03-03T18:53:00.286Z,9.67
2019-03-03T18:55:29.754Z,8.17
2019-03-03T18:57:58.976Z,9.50
2019-03-03T19:00:28.753Z,9.00
2019-03-03T19:02:58.495Z,16.93
2019-03-03T19:05:28.077Z,15.27
2019-03-03T19:07:57.298Z,10.97
2019-03-03T19:10:26.822Z,8.10
2019-03-03T19:12:56.278Z,8.63
2019-03-03T19:15:25.728Z,7.70
2019-03-03T19:17:54.970Z,7.87
2019-03-03T19:20:24.205Z,8.90
2019-03-03T19:22:53.434Z,10.03
2019-03-03T19:25:22.703Z,9.07
2019-03-03T19:27:51.939Z,7.23
2019-03-03T19:30:22.831Z,7.13
2019-03-03T19:33:05.047Z,6.87
2019-03-03T19:35:34.282Z,7.73
2019-03-03T19:38:03.508Z,6.47
2019-03-03T19:40:32.868Z,6.60
2019-03-03T19:43:02.097Z,6.57
2019-03-03T19:45:32.988Z,7.80
2019-03-03T19:48:02.227Z,9.37
2019-03-03T19:50:31.904Z,7.53
2019-03-03T19:53:01.421Z,10.60
2019-03-03T19:55:30.680Z,9.00
2019-03-03T19:57:59.900Z,14.57
2019-03-03T20:00:35.327Z,12.97
2019-03-03T20:03:02.486Z,10.93
2019-03-03T20:05:31.777Z,12.23
2019-03-03T20:08:01.000Z,9.60
2019-03-03T20:10:30.304Z,10.43
2019-03-03T20:12:59.526Z,10.07
2019-03-03T20:15:28.788Z,9.80
2019-03-03T20:17:58.037Z,7.87
2019-03-03T20:20:27.259Z,9.73
2019-03-03T20:22:56.507Z,10.20
2019-03-03T20:25:26.424Z,10.37
2019-03-03T20:27:55.663Z,12.17
2019-03-03T20:30:25.268Z,9.43
2019-03-03T20:32:54.533Z,11.63
2019-03-03T20:35:24.591Z,8.87
2019-03-03T20:37:53.836Z,8.20
2019-03-03T20:40:23.129Z,8.70
2019-03-03T20:42:52.427Z,9.13
2019-03-03T20:45:22.929Z,8.40
2019-03-03T20:47:52.184Z,9.03
2019-03-03T20:50:21.970Z,8.50
2019-03-03T20:52:51.326Z,8.13
2019-03-03T20:55:20.896Z,9.97
2019-03-03T20:57:50.153Z,8.63
2019-03-03T21:00:21.199Z,8.70
2019-03-03T21:02:50.493Z,10.20
2019-03-03T21:05:19.811Z,9.87
2019-03-03T21:07:51.704Z,10.40
2019-03-03T21:10:21.399Z,10.23
2019-03-03T21:12:50.676Z,8.67
2019-03-03T21:15:19.883Z,9.73
2019-03-03T21:17:49.123Z,8.67
2019-03-03T21:20:18.969Z,10.17
2019-03-03T21:22:48.256Z,14.57
2019-03-03T21:25:17.687Z,9.67
2019-03-03T21:27:48.954Z,11.57
2019-03-03T21:30:19.944Z,10.67
2019-03-03T21:32:49.418Z,11.00
2019-03-03T21:35:18.734Z,9.53
2019-03-03T21:37:48.042Z,10.97
2019-03-03T21:40:18.460Z,10.17
2019-03-03T21:42:47.747Z,13.73
2019-03-03T21:45:18.240Z,11.53
2019-03-03T21:47:47.495Z,8.57
2019-03-03T21:50:18.401Z,11.53
2019-03-03T21:52:47.636Z,8.87
2019-03-03T21:55:16.889Z,12.80
2019-03-03T21:57:47.549Z,8.90
2019-03-03T22:00:28.535Z,10.33
2019-03-03T22:02:58.032Z,8.87
2019-03-03T22:05:27.581Z,9.77
2019-03-03T22:07:56.871Z,9.63
2019-03-03T22:10:35.044Z,10.40
2019-03-03T22:13:06.415Z,13.03
2019-03-03T22:15:35.927Z,11.20
2019-03-03T22:18:05.508Z,10.63
2019-03-03T22:20:34.783Z,10.87
2019-03-03T22:23:04.459Z,9.57
2019-03-03T22:25:33.682Z,9.53
2019-03-03T22:28:02.943Z,9.17
2019-03-03T22:30:32.189Z,12.93
2019-03-03T22:33:01.423Z,10.53
2019-03-03T22:35:30.647Z,12.10
2019-03-03T22:37:59.895Z,10.23
2019-03-03T22:40:31.350Z,10.87
2019-03-03T22:43:00.590Z,10.40
2019-03-03T22:45:29.823Z,10.20
2019-03-03T22:47:59.127Z,10.90
2019-03-03T22:50:28.342Z,8.17
2019-03-03T22:52:57.618Z,9.47
2019-03-03T22:55:26.847Z,7.73
2019-03-03T22:57:56.090Z,7.50
2019-03-03T23:00:45.110Z,8.17
2019-03-03T23:03:17.355Z,7.77
2019-03-03T23:05:55.586Z,9.30
2019-03-03T23:08:30.442Z,6.80
2019-03-03T23:11:37.021Z,10.67
2019-03-03T23:14:28.972Z,8.23
2019-03-03T23:17:39.472Z,9.87
2019-03-03T23:20:20.101Z,7.27
2019-03-03T23:23:20.935Z,8.27
2019-03-03T23:25:51.644Z,10.47
2019-03-03T23:28:22.182Z,9.13
2019-03-03T23:30:52.300Z,7.37
2019-03-03T23:33:21.526Z,8.17
2019-03-03T23:35:51.320Z,10.37
2019-03-03T23:38:20.629Z,8.40
2019-03-03T23:40:49.886Z,9.10
2019-03-03T23:43:19.307Z,8.03
2019-03-03T23:45:48.847Z,8.27
2019-03-03T23:48:18.095Z,8.13
2019-03-03T23:50:47.672Z,8.53
2019-03-03T23:53:16.901Z,8.60
2019-03-03T23:55:46.147Z,9.30
2019-03-03T23:58:17.385Z,7.53
